createdAt,value
2018-08-11T00:00:03.540Z,14.98
2018-08-11T00:00:07.422Z,14.97
2018-08-11T00:00:11.624Z,14.98
2018-08-11T00:00:15.835Z,14.98
2018-08-11T00:00:20.140Z,14.97
2018-08-11T00:00:24.344Z,14.98
2018-08-11T00:00:28.668Z,14.98
2018-08-11T00:00:32.876Z,14.98
2018-08-11T00:00:37.075Z,14.97
2018-08-11T00:00:41.274Z,14.97
2018-08-11T00:00:45.584Z,14.97
2018-08-11T00:00:49.682Z,14.97
2018-08-11T00:00:53.796Z,14.97
2018-08-11T00:00:57.996Z,14.97
2018-08-11T00:01:02.242Z,14.97
2018-08-11T00:01:06.334Z,14.98
2018-08-11T00:01:10.531Z,14.97
2018-08-11T00:01:14.566Z,14.97
2018-08-11T00:01:18.663Z,14.97
2018-08-11T00:01:22.868Z,14.97
2018-08-11T00:01:27.064Z,14.97
2018-08-11T00:01:31.372Z,14.98
2018-08-11T00:01:35.575Z,14.97
2018-08-11T00:01:39.772Z,14.98
2018-08-11T00:01:44.081Z,14.97
2018-08-11T00:01:48.179Z,14.97
2018-08-11T00:01:52.492Z,14.97
2018-08-11T00:01:56.693Z,14.96
2018-08-11T00:02:00.892Z,14.96
2018-08-11T00:02:04.989Z,14.96
2018-08-11T00:02:09.226Z,14.96
2018-08-11T00:02:13.531Z,14.96
2018-08-11T00:02:17.722Z,14.96
2018-08-11T00:02:21.809Z,14.96
2018-08-11T00:02:26.110Z,14.96
2018-08-11T00:02:30.196Z,14.96
2018-08-11T00:02:34.190Z,14.96
2018-08-11T00:02:38.386Z,14.96
2018-08-11T00:02:42.698Z,14.97
2018-08-11T00:02:46.898Z,14.96
2018-08-11T00:02:50.986Z,14.96
2018-08-11T00:02:55.294Z,14.96
2018-08-11T00:02:59.600Z,14.95
2018-08-11T00:03:03.820Z,14.96
2018-08-11T00:03:07.699Z,14.95
2018-08-11T00:03:11.911Z,14.95
2018-08-11T00:03:16.108Z,14.95
2018-08-11T00:03:20.203Z,14.95
2018-08-11T00:03:24.404Z,14.96
2018-08-11T00:03:28.708Z,14.95
2018-08-11T00:03:32.801Z,14.95
2018-08-11T00:03:37.109Z,14.95
2018-08-11T00:03:41.308Z,14.95
2018-08-11T00:03:45.608Z,14.95
2018-08-11T00:03:49.911Z,14.95
2018-08-11T00:03:54.213Z,14.93
2018-08-11T00:03:58.525Z,14.94
2018-08-11T00:04:02.845Z,14.94
2018-08-11T00:04:06.942Z,14.94
2018-08-11T00:04:11.037Z,14.93
2018-08-11T00:04:15.123Z,14.94
2018-08-11T00:04:19.316Z,14.93
2018-08-11T00:04:23.629Z,14.94
2018-08-11T00:04:27.620Z,14.94
2018-08-11T00:04:31.930Z,14.94
2018-08-11T00:04:36.126Z,14.94
2018-08-11T00:04:40.220Z,14.94
2018-08-11T00:04:44.426Z,14.93
2018-08-11T00:04:48.521Z,14.93
2018-08-11T00:04:52.612Z,14.94
2018-08-11T00:04:56.811Z,14.93
2018-08-11T00:05:01.019Z,14.94
2018-08-11T00:05:05.211Z,14.93
2018-08-11T00:05:09.298Z,14.92
2018-08-11T00:05:13.283Z,14.93
2018-08-11T00:05:17.491Z,14.93
2018-08-11T00:05:21.698Z,14.92
2018-08-11T00:05:26.007Z,14.93
2018-08-11T00:05:30.140Z,14.93
2018-08-11T00:05:34.445Z,14.93
2018-08-11T00:05:38.647Z,14.93
2018-08-11T00:05:42.841Z,14.93
2018-08-11T00:05:47.033Z,14.93
2018-08-11T00:05:51.225Z,14.93
2018-08-11T00:05:55.525Z,14.93
2018-08-11T00:05:59.829Z,14.93
2018-08-11T00:06:03.922Z,14.93
2018-08-11T00:06:08.231Z,14.93
2018-08-11T00:06:12.531Z,14.93
2018-08-11T00:06:16.724Z,14.92
2018-08-11T00:06:20.813Z,14.93
2018-08-11T00:06:25.019Z,14.93
2018-08-11T00:06:29.004Z,14.92
2018-08-11T00:06:33.097Z,14.93
2018-08-11T00:06:37.295Z,14.93
2018-08-11T00:06:41.493Z,14.92
2018-08-11T00:06:45.385Z,14.92
2018-08-11T00:06:49.692Z,14.91
2018-08-11T00:06:53.999Z,14.92
2018-08-11T00:06:57.993Z,14.91
2018-08-11T00:07:02.092Z,14.92
2018-08-11T00:07:06.294Z,14.92
2018-08-11T00:07:10.485Z,14.92
2018-08-11T00:07:14.691Z,14.91
2018-08-11T00:07:18.885Z,14.91
2018-08-11T00:07:22.974Z,14.91
2018-08-11T00:07:27.281Z,14.92
2018-08-11T00:07:31.589Z,14.92
2018-08-11T00:07:35.790Z,14.91
2018-08-11T00:07:40.090Z,14.91
2018-08-11T00:07:44.287Z,14.91
2018-08-11T00:07:48.474Z,14.9
2018-08-11T00:07:52.784Z,14.9
2018-08-11T00:07:56.982Z,14.9
2018-08-11T00:08:01.295Z,14.91
2018-08-11T00:08:05.494Z,14.89
2018-08-11T00:08:09.583Z,14.89
2018-08-11T00:08:13.781Z,14.9
2018-08-11T00:08:17.875Z,14.89
2018-08-11T00:08:22.110Z,14.89
2018-08-11T00:08:26.411Z,14.89
2018-08-11T00:08:30.608Z,14.88
2018-08-11T00:08:34.917Z,14.88
2018-08-11T00:08:39.005Z,14.88
2018-08-11T00:08:43.211Z,14.89
2018-08-11T00:08:47.306Z,14.89
2018-08-11T00:08:51.503Z,14.87
2018-08-11T00:08:55.807Z,14.87
2018-08-11T00:09:00.012Z,14.87
2018-08-11T00:09:04.110Z,14.87
2018-08-11T00:09:08.309Z,14.87
2018-08-11T00:09:12.298Z,14.87
2018-08-11T00:09:16.494Z,14.87
2018-08-11T00:09:20.804Z,14.86
2018-08-11T00:09:24.894Z,14.86
2018-08-11T00:09:28.667Z,14.86
2018-08-11T00:09:32.967Z,14.86
2018-08-11T00:09:37.174Z,14.86
2018-08-11T00:09:41.378Z,14.85
2018-08-11T00:09:45.364Z,14.85
2018-08-11T00:09:49.346Z,14.85
2018-08-11T00:09:53.660Z,14.85
2018-08-11T00:09:57.867Z,14.85
2018-08-11T00:10:01.965Z,14.85
2018-08-11T00:10:06.055Z,14.84
2018-08-11T00:10:10.256Z,14.84
2018-08-11T00:10:14.454Z,14.84
2018-08-11T00:10:18.758Z,14.84
2018-08-11T00:10:22.960Z,14.84
2018-08-11T00:10:27.161Z,14.84
2018-08-11T00:10:31.364Z,14.84
2018-08-11T00:10:35.560Z,14.84
2018-08-11T00:10:39.764Z,14.84
2018-08-11T00:10:43.855Z,14.83
2018-08-11T00:10:47.952Z,14.83
2018-08-11T00:10:51.977Z,14.82
2018-08-11T00:10:56.297Z,14.83
2018-08-11T00:11:00.389Z,14.83
2018-08-11T00:11:04.684Z,14.82
2018-08-11T00:11:08.995Z,14.82
2018-08-11T00:11:13.191Z,14.82
2018-08-11T00:11:17.495Z,14.82
2018-08-11T00:11:21.588Z,14.81
2018-08-11T00:11:25.897Z,14.81
2018-08-11T00:11:30.035Z,14.81
2018-08-11T00:11:34.128Z,14.8
2018-08-11T00:11:38.225Z,14.8
2018-08-11T00:11:42.427Z,14.8
2018-08-11T00:11:46.733Z,14.8
2018-08-11T00:11:50.713Z,14.8
2018-08-11T00:11:55.026Z,14.8
2018-08-11T00:11:59.228Z,14.8
2018-08-11T00:12:03.114Z,14.8
2018-08-11T00:12:07.110Z,14.79
2018-08-11T00:12:11.306Z,14.79
2018-08-11T00:12:15.510Z,14.78
2018-08-11T00:12:19.719Z,14.78
2018-08-11T00:12:24.046Z,14.78
2018-08-11T00:12:28.234Z,14.77
2018-08-11T00:12:32.432Z,14.77
2018-08-11T00:12:36.532Z,14.76
2018-08-11T00:12:40.750Z,14.77
2018-08-11T00:12:44.842Z,14.77
2018-08-11T00:12:49.147Z,14.76
2018-08-11T00:12:53.454Z,14.76
2018-08-11T00:12:57.757Z,14.76
2018-08-11T00:13:02.073Z,14.76
2018-08-11T00:13:06.268Z,14.76
2018-08-11T00:13:10.581Z,14.75
2018-08-11T00:13:14.893Z,14.74
2018-08-11T00:13:19.091Z,14.76
2018-08-11T00:13:23.286Z,14.74
2018-08-11T00:13:27.484Z,14.74
2018-08-11T00:13:31.784Z,14.74
2018-08-11T00:13:36.082Z,14.73
2018-08-11T00:13:40.272Z,14.73
2018-08-11T00:13:44.567Z,14.72
2018-08-11T00:13:48.877Z,14.72
2018-08-11T00:13:53.186Z,14.72
2018-08-11T00:13:57.493Z,14.71
2018-08-11T00:14:01.690Z,14.71
2018-08-11T00:14:05.683Z,14.71
2018-08-11T00:14:09.889Z,14.7
2018-08-11T00:14:13.980Z,14.7
2018-08-11T00:14:18.072Z,14.71
2018-08-11T00:14:22.269Z,14.69
2018-08-11T00:14:26.471Z,14.7
2018-08-11T00:14:30.459Z,14.7
2018-08-11T00:14:34.651Z,14.69
2018-08-11T00:14:38.955Z,14.68
2018-08-11T00:14:43.046Z,14.69
2018-08-11T00:14:47.346Z,14.69
2018-08-11T00:14:51.543Z,14.68
2018-08-11T00:14:55.744Z,14.68
2018-08-11T00:14:59.835Z,14.68
2018-08-11T00:15:04.136Z,14.68
2018-08-11T00:15:08.340Z,14.67
2018-08-11T00:15:12.539Z,14.67
2018-08-11T00:15:16.845Z,14.67
2018-08-11T00:15:21.049Z,14.67
2018-08-11T00:15:25.242Z,14.66
2018-08-11T00:15:29.560Z,14.66
2018-08-11T00:15:33.752Z,14.66
2018-08-11T00:15:38.054Z,14.66
2018-08-11T00:15:42.037Z,14.66
2018-08-11T00:15:46.235Z,14.65
2018-08-11T00:15:50.538Z,14.64
2018-08-11T00:15:54.730Z,14.64
2018-08-11T00:15:59.029Z,14.63
2018-08-11T00:16:03.018Z,14.63
2018-08-11T00:16:07.231Z,14.63
2018-08-11T00:16:11.535Z,14.63
2018-08-11T00:16:15.846Z,14.62
2018-08-11T00:16:20.042Z,14.62
2018-08-11T00:16:24.246Z,14.61
2018-08-11T00:16:28.334Z,14.62
2018-08-11T00:16:32.531Z,14.61
2018-08-11T00:16:36.838Z,14.61
2018-08-11T00:16:41.136Z,14.61
2018-08-11T00:16:45.223Z,14.6
2018-08-11T00:16:49.221Z,14.6
2018-08-11T00:16:53.307Z,14.59
2018-08-11T00:16:57.613Z,14.59
2018-08-11T00:17:01.606Z,14.59
2018-08-11T00:17:05.817Z,14.58
2018-08-11T00:17:10.123Z,14.59
2018-08-11T00:17:14.217Z,14.58
2018-08-11T00:17:18.526Z,14.58
2018-08-11T00:17:22.724Z,14.57
2018-08-11T00:17:26.917Z,14.57
2018-08-11T00:17:31.214Z,14.56
2018-08-11T00:17:35.415Z,14.57
2018-08-11T00:17:39.745Z,14.56
2018-08-11T00:17:44.078Z,14.55
2018-08-11T00:17:48.278Z,14.55
2018-08-11T00:17:52.587Z,14.55
2018-08-11T00:17:56.887Z,14.55
2018-08-11T00:18:01.083Z,14.55
2018-08-11T00:18:05.293Z,14.54
2018-08-11T00:18:09.600Z,14.54
2018-08-11T00:18:13.903Z,14.54
2018-08-11T00:18:18.213Z,14.52
2018-08-11T00:18:22.410Z,14.53
2018-08-11T00:18:26.604Z,14.53
2018-08-11T00:18:30.801Z,14.53
2018-08-11T00:18:34.800Z,14.53
2018-08-11T00:18:39.117Z,14.53
2018-08-11T00:18:43.316Z,14.52
2018-08-11T00:18:47.516Z,14.52
2018-08-11T00:18:51.728Z,14.52
2018-08-11T00:18:56.034Z,14.51
2018-08-11T00:19:00.125Z,14.51
2018-08-11T00:19:04.439Z,14.51
2018-08-11T00:19:08.533Z,14.5
2018-08-11T00:19:12.841Z,14.5
2018-08-11T00:19:17.039Z,14.51
2018-08-11T00:19:21.240Z,14.5
2018-08-11T00:19:25.459Z,14.51
2018-08-11T00:19:29.762Z,14.49
2018-08-11T00:19:33.851Z,14.5
2018-08-11T00:19:38.046Z,14.5
2018-08-11T00:19:42.350Z,14.49
2018-08-11T00:19:46.546Z,14.49
2018-08-11T00:19:50.746Z,14.48
2018-08-11T00:19:54.732Z,14.49
2018-08-11T00:19:59.034Z,14.48
2018-08-11T00:20:03.139Z,14.48
2018-08-11T00:20:07.121Z,14.48
2018-08-11T00:20:11.221Z,14.48
2018-08-11T00:20:15.441Z,14.47
2018-08-11T00:20:19.531Z,14.47
2018-08-11T00:20:23.729Z,14.47
2018-08-11T00:20:28.045Z,14.48
2018-08-11T00:20:32.180Z,14.47
2018-08-11T00:20:36.495Z,14.47
2018-08-11T00:20:40.800Z,14.46
2018-08-11T00:20:44.991Z,14.47
2018-08-11T00:20:49.295Z,14.46
2018-08-11T00:20:53.492Z,14.46
2018-08-11T00:20:57.798Z,14.47
2018-08-11T00:21:01.784Z,14.46
2018-08-11T00:21:05.883Z,14.45
2018-08-11T00:21:10.091Z,14.46
2018-08-11T00:21:14.289Z,14.45
2018-08-11T00:21:18.490Z,14.45
2018-08-11T00:21:22.687Z,14.46
2018-08-11T00:21:26.992Z,14.45
2018-08-11T00:21:31.306Z,14.45
2018-08-11T00:21:35.507Z,14.44
2018-08-11T00:21:39.706Z,14.44
2018-08-11T00:21:44.021Z,14.44
2018-08-11T00:21:48.334Z,14.44
2018-08-11T00:21:52.427Z,14.44
2018-08-11T00:21:56.412Z,14.44
2018-08-11T00:22:00.607Z,14.43
2018-08-11T00:22:04.852Z,14.43
2018-08-11T00:22:09.158Z,14.44
2018-08-11T00:22:13.249Z,14.43
2018-08-11T00:22:17.551Z,14.43
2018-08-11T00:22:21.647Z,14.44
2018-08-11T00:22:25.848Z,14.43
2018-08-11T00:22:30.147Z,14.43
2018-08-11T00:22:34.383Z,14.43
2018-08-11T00:22:38.688Z,14.43
2018-08-11T00:22:42.895Z,14.43
2018-08-11T00:22:47.202Z,14.43
2018-08-11T00:22:51.515Z,14.43
2018-08-11T00:22:55.611Z,14.43
2018-08-11T00:22:59.914Z,14.43
2018-08-11T00:23:04.109Z,14.43
2018-08-11T00:23:08.302Z,14.44
2018-08-11T00:23:12.493Z,14.43
2018-08-11T00:23:16.804Z,14.43
2018-08-11T00:23:20.901Z,14.43
2018-08-11T00:23:25.199Z,14.43
2018-08-11T00:23:29.502Z,14.43
2018-08-11T00:23:33.800Z,14.44
2018-08-11T00:23:37.997Z,14.44
2018-08-11T00:23:42.302Z,14.44
2018-08-11T00:23:46.601Z,14.44
2018-08-11T00:23:50.587Z,14.43
2018-08-11T00:23:54.793Z,14.43
2018-08-11T00:23:59.093Z,14.43
2018-08-11T00:24:03.099Z,14.44
2018-08-11T00:24:07.188Z,14.44
2018-08-11T00:24:11.386Z,14.44
2018-08-11T00:24:15.690Z,14.44
2018-08-11T00:24:19.991Z,14.44
2018-08-11T00:24:24.185Z,14.44
2018-08-11T00:24:28.286Z,14.44
2018-08-11T00:24:32.374Z,14.44
2018-08-11T00:24:36.682Z,14.45
2018-08-11T00:24:40.881Z,14.44
2018-08-11T00:24:44.980Z,14.44
2018-08-11T00:24:49.287Z,14.46
2018-08-11T00:24:53.266Z,14.46
2018-08-11T00:24:57.573Z,14.45
2018-08-11T00:25:01.880Z,14.45
2018-08-11T00:25:06.013Z,14.44
2018-08-11T00:25:10.215Z,14.44
2018-08-11T00:25:14.308Z,14.46
2018-08-11T00:25:18.398Z,14.46
2018-08-11T00:25:22.704Z,14.46
2018-08-11T00:25:26.905Z,14.46
2018-08-11T00:25:31.111Z,14.46
2018-08-11T00:25:35.314Z,14.46
2018-08-11T00:25:39.404Z,14.46
2018-08-11T00:25:43.497Z,14.46
2018-08-11T00:25:47.807Z,14.46
2018-08-11T00:25:52.106Z,14.46
2018-08-11T00:25:56.197Z,14.46
2018-08-11T00:26:00.290Z,14.46
2018-08-11T00:26:04.592Z,14.46
2018-08-11T00:26:08.796Z,14.46
2018-08-11T00:26:12.995Z,14.46
2018-08-11T00:26:16.980Z,14.46
2018-08-11T00:26:21.297Z,14.46
2018-08-11T00:26:25.491Z,14.47
2018-08-11T00:26:29.581Z,14.46
2018-08-11T00:26:33.779Z,14.46
2018-08-11T00:26:37.974Z,14.46
2018-08-11T00:26:42.169Z,14.46
2018-08-11T00:26:46.268Z,14.46
2018-08-11T00:26:50.355Z,14.47
2018-08-11T00:26:54.673Z,14.46
2018-08-11T00:26:58.764Z,14.47
2018-08-11T00:27:02.961Z,14.46
2018-08-11T00:27:07.165Z,14.47
2018-08-11T00:27:11.466Z,14.46
2018-08-11T00:27:15.704Z,14.46
2018-08-11T00:27:20.006Z,14.46
2018-08-11T00:27:24.204Z,14.47
2018-08-11T00:27:28.509Z,14.46
2018-08-11T00:27:32.755Z,14.46
2018-08-11T00:27:37.055Z,14.46
2018-08-11T00:27:41.355Z,14.46
2018-08-11T00:27:45.700Z,14.46
2018-08-11T00:27:50.000Z,14.46
2018-08-11T00:27:54.095Z,14.47
2018-08-11T00:27:58.303Z,14.46
2018-08-11T00:28:02.508Z,14.46
2018-08-11T00:28:06.701Z,14.46
2018-08-11T00:28:11.005Z,14.46
2018-08-11T00:28:15.202Z,14.46
2018-08-11T00:28:19.506Z,14.47
2018-08-11T00:28:23.808Z,14.47
2018-08-11T00:28:28.051Z,14.47
2018-08-11T00:28:32.243Z,14.46
2018-08-11T00:28:36.444Z,14.46
2018-08-11T00:28:40.687Z,14.47
2018-08-11T00:28:44.881Z,14.46
2018-08-11T00:28:49.078Z,14.47
2018-08-11T00:28:53.063Z,14.47
2018-08-11T00:28:57.155Z,14.46
2018-08-11T00:29:01.241Z,14.46
2018-08-11T00:29:05.224Z,14.46
2018-08-11T00:29:09.317Z,14.46
2018-08-11T00:29:13.628Z,14.46
2018-08-11T00:29:17.820Z,14.46
2018-08-11T00:29:21.807Z,14.47
2018-08-11T00:29:26.103Z,14.47
2018-08-11T00:29:30.195Z,14.46
2018-08-11T00:29:34.386Z,14.47
2018-08-11T00:29:38.374Z,14.47
2018-08-11T00:29:42.459Z,14.47
2018-08-11T00:29:46.662Z,14.47
2018-08-11T00:29:50.756Z,14.46
2018-08-11T00:29:54.957Z,14.46
2018-08-11T00:29:59.259Z,14.46
2018-08-11T00:30:03.563Z,14.47
2018-08-11T00:30:07.803Z,14.47
2018-08-11T00:30:11.792Z,14.47
2018-08-11T00:30:15.888Z,14.46
2018-08-11T00:30:20.089Z,14.46
2018-08-11T00:30:24.318Z,14.46
2018-08-11T00:30:28.537Z,14.47
2018-08-11T00:30:32.844Z,14.46
2018-08-11T00:30:36.929Z,14.47
2018-08-11T00:30:41.131Z,14.46
2018-08-11T00:30:45.229Z,14.46
2018-08-11T00:30:49.431Z,14.46
2018-08-11T00:30:53.736Z,14.47
2018-08-11T00:30:57.931Z,14.46
2018-08-11T00:31:02.133Z,14.46
2018-08-11T00:31:06.329Z,14.46
2018-08-11T00:31:10.633Z,14.46
2018-08-11T00:31:14.828Z,14.47
2018-08-11T00:31:19.034Z,14.46
2018-08-11T00:31:23.336Z,14.45
2018-08-11T00:31:27.535Z,14.46
2018-08-11T00:31:31.627Z,14.46
2018-08-11T00:31:35.936Z,14.46
2018-08-11T00:31:40.024Z,14.46
2018-08-11T00:31:44.332Z,14.46
2018-08-11T00:31:48.423Z,14.46
2018-08-11T00:31:52.620Z,14.46
2018-08-11T00:31:56.714Z,14.45
2018-08-11T00:32:00.914Z,14.46
2018-08-11T00:32:05.218Z,14.46
2018-08-11T00:32:09.412Z,14.46
2018-08-11T00:32:13.725Z,14.45
2018-08-11T00:32:18.036Z,14.45
2018-08-11T00:32:22.019Z,14.46
2018-08-11T00:32:26.112Z,14.45
2018-08-11T00:32:30.306Z,14.45
2018-08-11T00:32:34.607Z,14.45
2018-08-11T00:32:38.919Z,14.45
2018-08-11T00:32:43.220Z,14.46
2018-08-11T00:32:47.519Z,14.46
2018-08-11T00:32:51.616Z,14.46
2018-08-11T00:32:55.709Z,14.45
2018-08-11T00:32:59.905Z,14.46
2018-08-11T00:33:04.006Z,14.45
2018-08-11T00:33:08.202Z,14.46
2018-08-11T00:33:12.515Z,14.46
2018-08-11T00:33:16.404Z,14.45
2018-08-11T00:33:20.600Z,14.46
2018-08-11T00:33:24.911Z,14.46
2018-08-11T00:33:29.214Z,14.46
2018-08-11T00:33:33.410Z,14.45
2018-08-11T00:33:37.713Z,14.47
2018-08-11T00:33:41.907Z,14.47
2018-08-11T00:33:46.216Z,14.47
2018-08-11T00:33:50.556Z,14.47
2018-08-11T00:33:54.754Z,14.46
2018-08-11T00:33:58.956Z,14.46
2018-08-11T00:34:03.049Z,14.46
2018-08-11T00:34:07.248Z,14.47
2018-08-11T00:34:11.237Z,14.46
2018-08-11T00:34:15.432Z,14.47
2018-08-11T00:34:19.728Z,14.47
2018-08-11T00:34:23.924Z,14.47
2018-08-11T00:34:27.822Z,14.47
2018-08-11T00:34:32.068Z,14.47
2018-08-11T00:34:36.284Z,14.47
2018-08-11T00:34:40.595Z,14.47
2018-08-11T00:34:44.840Z,14.48
2018-08-11T00:34:48.931Z,14.47
2018-08-11T00:34:53.125Z,14.46
2018-08-11T00:34:57.212Z,14.48
2018-08-11T00:35:01.408Z,14.47
2018-08-11T00:35:05.404Z,14.46
2018-08-11T00:35:09.702Z,14.47
2018-08-11T00:35:13.899Z,14.47
2018-08-11T00:35:18.211Z,14.47
2018-08-11T00:35:22.453Z,14.48
2018-08-11T00:35:26.762Z,14.47
2018-08-11T00:35:30.957Z,14.47
2018-08-11T00:35:35.163Z,14.47
2018-08-11T00:35:39.252Z,14.47
2018-08-11T00:35:43.441Z,14.48
2018-08-11T00:35:47.419Z,14.48
2018-08-11T00:35:51.617Z,14.48
2018-08-11T00:35:55.915Z,14.48
2018-08-11T00:36:00.009Z,14.49
2018-08-11T00:36:04.104Z,14.48
2018-08-11T00:36:08.196Z,14.49
2018-08-11T00:36:12.283Z,14.48
2018-08-11T00:36:16.377Z,14.48
2018-08-11T00:36:20.680Z,14.48
2018-08-11T00:36:25.042Z,14.48
2018-08-11T00:36:29.788Z,14.48
2018-08-11T00:36:34.596Z,14.49
2018-08-11T00:36:38.833Z,14.49
2018-08-11T00:36:43.032Z,14.49
2018-08-11T00:36:47.240Z,14.49
2018-08-11T00:36:51.387Z,14.49
2018-08-11T00:36:55.471Z,14.49
2018-08-11T00:36:59.459Z,14.49
2018-08-11T00:37:03.670Z,14.5
2018-08-11T00:37:07.971Z,14.49
2018-08-11T00:37:12.276Z,14.49
2018-08-11T00:37:16.476Z,14.5
2018-08-11T00:37:20.586Z,14.5
2018-08-11T00:37:24.681Z,14.49
2018-08-11T00:37:28.872Z,14.5
2018-08-11T00:37:33.176Z,14.49
2018-08-11T00:37:37.264Z,14.5
2018-08-11T00:37:41.479Z,14.5
2018-08-11T00:37:45.782Z,14.5
2018-08-11T00:37:50.027Z,14.5
2018-08-11T00:37:54.328Z,14.51
2018-08-11T00:37:58.649Z,14.5
2018-08-11T00:38:02.968Z,14.5
2018-08-11T00:38:07.159Z,14.51
2018-08-11T00:38:11.259Z,14.51
2018-08-11T00:38:15.554Z,14.52
2018-08-11T00:38:19.861Z,14.51
2018-08-11T00:38:23.951Z,14.51
2018-08-11T00:38:28.050Z,14.51
2018-08-11T00:38:32.259Z,14.51
2018-08-11T00:38:36.465Z,14.51
2018-08-11T00:38:40.763Z,14.51
2018-08-11T00:38:45.061Z,14.52
2018-08-11T00:38:49.262Z,14.51
2018-08-11T00:38:53.562Z,14.52
2018-08-11T00:38:57.757Z,14.51
2018-08-11T00:39:01.956Z,14.51
2018-08-11T00:39:06.260Z,14.51
2018-08-11T00:39:10.457Z,14.5
2018-08-11T00:39:14.542Z,14.51
2018-08-11T00:39:18.843Z,14.5
2018-08-11T00:39:22.929Z,14.51
2018-08-11T00:39:26.813Z,14.51
2018-08-11T00:39:30.906Z,14.5
2018-08-11T00:39:35.005Z,14.5
2018-08-11T00:39:39.303Z,14.5
2018-08-11T00:39:43.497Z,14.5
2018-08-11T00:39:47.800Z,14.5
2018-08-11T00:39:52.115Z,14.5
2018-08-11T00:39:56.324Z,14.5
2018-08-11T00:40:00.534Z,14.49
2018-08-11T00:40:04.625Z,14.5
2018-08-11T00:40:08.836Z,14.5
2018-08-11T00:40:13.145Z,14.49
2018-08-11T00:40:17.447Z,14.49
2018-08-11T00:40:21.649Z,14.49
2018-08-11T00:40:25.855Z,14.49
2018-08-11T00:40:30.164Z,14.48
2018-08-11T00:40:34.040Z,14.49
2018-08-11T00:40:38.372Z,14.49
2018-08-11T00:40:42.689Z,14.48
2018-08-11T00:40:46.896Z,14.48
2018-08-11T00:40:50.988Z,14.48
2018-08-11T00:40:55.084Z,14.47
2018-08-11T00:40:59.289Z,14.48
2018-08-11T00:41:03.277Z,14.47
2018-08-11T00:41:07.585Z,14.47
2018-08-11T00:41:11.788Z,14.47
2018-08-11T00:41:15.992Z,14.47
2018-08-11T00:41:20.195Z,14.47
2018-08-11T00:41:24.408Z,14.47
2018-08-11T00:41:28.511Z,14.46
2018-08-11T00:41:32.708Z,14.46
2018-08-11T00:41:37.011Z,14.46
2018-08-11T00:41:41.210Z,14.46
2018-08-11T00:41:45.406Z,14.46
2018-08-11T00:41:49.612Z,14.46
2018-08-11T00:41:53.617Z,14.46
2018-08-11T00:41:57.922Z,14.45
2018-08-11T00:42:02.020Z,14.46
2018-08-11T00:42:06.233Z,14.45
2018-08-11T00:42:10.551Z,14.45
2018-08-11T00:42:14.751Z,14.45
2018-08-11T00:42:18.641Z,14.44
2018-08-11T00:42:22.650Z,14.45
2018-08-11T00:42:26.861Z,14.43
2018-08-11T00:42:31.056Z,14.44
2018-08-11T00:42:35.259Z,14.44
2018-08-11T00:42:39.456Z,14.44
2018-08-11T00:42:43.548Z,14.44
2018-08-11T00:42:47.747Z,14.43
2018-08-11T00:42:51.963Z,14.43
2018-08-11T00:42:56.272Z,14.43
2018-08-11T00:43:00.154Z,14.42
2018-08-11T00:43:04.255Z,14.43
2018-08-11T00:43:08.353Z,14.42
2018-08-11T00:43:12.449Z,14.41
2018-08-11T00:43:16.444Z,14.41
2018-08-11T00:43:20.757Z,14.41
2018-08-11T00:43:25.064Z,14.41
2018-08-11T00:43:29.155Z,14.4
2018-08-11T00:43:33.253Z,14.4
2018-08-11T00:43:37.454Z,14.39
2018-08-11T00:43:41.758Z,14.39
2018-08-11T00:43:46.058Z,14.39
2018-08-11T00:43:50.261Z,14.39
2018-08-11T00:43:54.352Z,14.38
2018-08-11T00:43:58.549Z,14.37
2018-08-11T00:44:02.921Z,14.37
2018-08-11T00:44:07.009Z,14.37
2018-08-11T00:44:11.305Z,14.37
2018-08-11T00:44:15.616Z,14.37
2018-08-11T00:44:19.812Z,14.36
2018-08-11T00:44:24.005Z,14.36
2018-08-11T00:44:28.018Z,14.36
2018-08-11T00:44:32.321Z,14.35
2018-08-11T00:44:36.411Z,14.36
2018-08-11T00:44:40.714Z,14.35
2018-08-11T00:44:44.913Z,14.34
2018-08-11T00:44:48.999Z,14.35
2018-08-11T00:44:53.295Z,14.34
2018-08-11T00:44:57.386Z,14.33
2018-08-11T00:45:01.586Z,14.33
2018-08-11T00:45:05.682Z,14.33
2018-08-11T00:45:09.876Z,14.33
2018-08-11T00:45:14.202Z,14.31
2018-08-11T00:45:18.514Z,14.32
2018-08-11T00:45:22.925Z,14.32
2018-08-11T00:45:27.253Z,14.31
2018-08-11T00:45:31.353Z,14.3
2018-08-11T00:45:35.444Z,14.29
2018-08-11T00:45:39.531Z,14.29
2018-08-11T00:45:43.744Z,14.29
2018-08-11T00:45:48.107Z,14.29
2018-08-11T00:45:52.312Z,14.28
2018-08-11T00:45:56.617Z,14.29
2018-08-11T00:46:00.822Z,14.28
2018-08-11T00:46:04.703Z,14.28
2018-08-11T00:46:08.897Z,14.27
2018-08-11T00:46:12.986Z,14.27
2018-08-11T00:46:17.200Z,14.26
2018-08-11T00:46:21.392Z,14.26
2018-08-11T00:46:25.483Z,14.27
2018-08-11T00:46:29.789Z,14.25
2018-08-11T00:46:34.012Z,14.25
2018-08-11T00:46:38.312Z,14.25
2018-08-11T00:46:42.626Z,14.24
2018-08-11T00:46:46.838Z,14.24
2018-08-11T00:46:51.038Z,14.23
2018-08-11T00:46:55.126Z,14.23
2018-08-11T00:46:59.325Z,14.22
2018-08-11T00:47:03.529Z,14.23
2018-08-11T00:47:07.511Z,14.22
2018-08-11T00:47:11.705Z,14.22
2018-08-11T00:47:15.901Z,14.22
2018-08-11T00:47:20.094Z,14.21
2018-08-11T00:47:24.289Z,14.21
2018-08-11T00:47:28.483Z,14.22
2018-08-11T00:47:32.687Z,14.21
2018-08-11T00:47:36.885Z,14.21
2018-08-11T00:47:41.194Z,14.2
2018-08-11T00:47:45.499Z,14.2
2018-08-11T00:47:49.804Z,14.19
2018-08-11T00:47:53.997Z,14.2
2018-08-11T00:47:58.090Z,14.2
2018-08-11T00:48:02.234Z,14.2
2018-08-11T00:48:06.435Z,14.2
2018-08-11T00:48:10.641Z,14.2
2018-08-11T00:48:14.840Z,14.19
2018-08-11T00:48:19.149Z,14.19
2018-08-11T00:48:23.240Z,14.19
2018-08-11T00:48:27.444Z,14.19
2018-08-11T00:48:31.683Z,14.19
2018-08-11T00:48:35.992Z,14.19
2018-08-11T00:48:40.186Z,14.18
2018-08-11T00:48:44.165Z,14.17
2018-08-11T00:48:48.470Z,14.18
2018-08-11T00:48:52.676Z,14.18
2018-08-11T00:48:56.770Z,14.17
2018-08-11T00:49:00.871Z,14.16
2018-08-11T00:49:05.071Z,14.17
2018-08-11T00:49:09.269Z,14.17
2018-08-11T00:49:13.576Z,14.16
2018-08-11T00:49:17.907Z,14.15
2018-08-11T00:49:22.511Z,14.16
2018-08-11T00:49:26.882Z,14.15
2018-08-11T00:49:31.461Z,14.15
2018-08-11T00:49:36.725Z,14.14
2018-08-11T00:49:41.103Z,14.15
2018-08-11T00:49:45.415Z,14.14
2018-08-11T00:49:49.619Z,14.14
2018-08-11T00:49:53.925Z,14.14
2018-08-11T00:49:58.121Z,14.14
2018-08-11T00:50:02.224Z,14.13
2018-08-11T00:50:06.357Z,14.12
2018-08-11T00:50:10.444Z,14.12
2018-08-11T00:50:14.748Z,14.13
2018-08-11T00:50:18.947Z,14.12
2018-08-11T00:50:23.258Z,14.12
2018-08-11T00:50:27.619Z,14.12
2018-08-11T00:50:31.817Z,14.12
2018-08-11T00:50:35.804Z,14.12
2018-08-11T00:50:40.113Z,14.11
2018-08-11T00:50:44.424Z,14.12
2018-08-11T00:50:48.628Z,14.11
2018-08-11T00:50:52.614Z,14.11
2018-08-11T00:50:56.819Z,14.11
2018-08-11T00:51:01.123Z,14.1
2018-08-11T00:51:05.216Z,14.1
2018-08-11T00:51:09.529Z,14.08
2018-08-11T00:51:13.738Z,14.1
2018-08-11T00:51:18.051Z,14.08
2018-08-11T00:51:22.301Z,14.09
2018-08-11T00:51:26.501Z,14.08
2018-08-11T00:51:30.696Z,14.08
2018-08-11T00:51:35.000Z,14.08
2018-08-11T00:51:39.202Z,14.07
2018-08-11T00:51:43.395Z,14.07
2018-08-11T00:51:47.588Z,14.07
2018-08-11T00:51:51.677Z,14.07
2018-08-11T00:51:55.872Z,14.07
2018-08-11T00:52:00.180Z,14.07
2018-08-11T00:52:04.266Z,14.06
2018-08-11T00:52:08.356Z,14.06
2018-08-11T00:52:12.665Z,14.06
2018-08-11T00:52:16.967Z,14.06
2018-08-11T00:52:21.172Z,14.06
2018-08-11T00:52:25.259Z,14.06
2018-08-11T00:52:29.455Z,14.06
2018-08-11T00:52:33.552Z,14.06
2018-08-11T00:52:37.854Z,14.06
2018-08-11T00:52:42.153Z,14.05
2018-08-11T00:52:46.371Z,14.05
2018-08-11T00:52:50.682Z,14.05
2018-08-11T00:52:55.033Z,14.05
2018-08-11T00:52:59.232Z,14.04
2018-08-11T00:53:03.429Z,14.04
2018-08-11T00:53:07.511Z,14.04
2018-08-11T00:53:11.713Z,14.04
2018-08-11T00:53:15.922Z,14.05
2018-08-11T00:53:20.122Z,14.04
2018-08-11T00:53:24.322Z,14.04
2018-08-11T00:53:28.313Z,14.04
2018-08-11T00:53:32.516Z,14.03
2018-08-11T00:53:36.715Z,14.03
2018-08-11T00:53:41.025Z,14.02
2018-08-11T00:53:45.113Z,14.04
2018-08-11T00:53:49.324Z,14.03
2018-08-11T00:53:53.516Z,14.02
2018-08-11T00:53:57.707Z,14.02
2018-08-11T00:54:01.809Z,14.02
2018-08-11T00:54:06.013Z,14.03
2018-08-11T00:54:09.996Z,14.03
2018-08-11T00:54:14.087Z,14.03